createdAt,value
2023-05-04T00:00:51.963Z,465.00
2023-05-04T00:01:52.030Z,462.00
2023-05-04T00:02:52.163Z,462.00
2023-05-04T00:03:52.313Z,465.00
2023-05-04T00:04:52.262Z,467.00
2023-05-04T00:05:52.134Z,469.00
2023-05-04T00:06:52.183Z,469.00
2023-05-04T00:07:52.195Z,467.00
2023-05-04T00:08:52.246Z,466.00
2023-05-04T00:09:52.310Z,463.00
2023-05-04T00:10:52.307Z,463.00
2023-05-04T00:11:52.358Z,465.00
2023-05-04T00:12:52.451Z,467.00
2023-05-04T00:13:52.412Z,468.00
2023-05-04T00:14:52.456Z,470.00
2023-05-04T00:15:52.531Z,470.00
2023-05-04T00:16:52.541Z,470.00
2023-05-04T00:17:52.558Z,470.00
2023-05-04T00:18:52.589Z,468.00
2023-05-04T00:19:52.589Z,465.00
2023-05-04T00:20:52.638Z,465.00
2023-05-04T00:21:52.685Z,466.00
2023-05-04T00:22:52.690Z,463.00
2023-05-04T00:23:52.700Z,462.00
2023-05-04T00:24:52.726Z,463.00
2023-05-04T00:25:52.769Z,462.00
2023-05-04T00:26:52.791Z,459.00
2023-05-04T00:27:52.820Z,459.00
2023-05-04T00:28:52.863Z,460.00
2023-05-04T00:29:52.881Z,464.00
2023-05-04T00:30:52.902Z,466.00
2023-05-04T00:31:53.010Z,468.00
2023-05-04T00:32:53.043Z,472.00
2023-05-04T00:33:53.009Z,472.00
2023-05-04T00:34:53.115Z,473.00
2023-05-04T00:35:53.158Z,472.00
2023-05-04T00:36:53.246Z,469.00
2023-05-04T00:37:53.292Z,471.00
2023-05-04T00:38:53.335Z,469.00
2023-05-04T00:39:53.410Z,468.00
2023-05-04T00:40:53.439Z,468.00
2023-05-04T00:41:53.550Z,467.00
2023-05-04T00:42:53.599Z,465.00
2023-05-04T00:43:53.665Z,466.00
2023-05-04T00:44:53.745Z,466.00
2023-05-04T00:45:53.761Z,465.00
2023-05-04T00:46:53.931Z,468.00
2023-05-04T00:47:53.971Z,468.00
2023-05-04T00:48:53.983Z,469.00
2023-05-04T00:49:54.108Z,469.00
2023-05-04T00:50:54.120Z,469.00
2023-05-04T00:51:54.186Z,469.00
2023-05-04T00:52:54.234Z,469.00
2023-05-04T00:53:54.277Z,468.00
2023-05-04T00:54:54.381Z,469.00
2023-05-04T00:55:54.410Z,471.00
2023-05-04T00:56:54.553Z,471.00
2023-05-04T00:57:54.550Z,467.00
2023-05-04T00:58:54.692Z,467.00
2023-05-04T00:59:54.682Z,465.00
2023-05-04T01:00:54.807Z,464.00
2023-05-04T01:01:54.831Z,466.00
2023-05-04T01:02:54.967Z,466.00
2023-05-04T01:03:55.014Z,466.00
2023-05-04T01:04:54.977Z,467.00
2023-05-04T01:05:55.082Z,465.00
2023-05-04T01:06:55.171Z,468.00
2023-05-04T01:07:55.230Z,468.00
2023-05-04T01:08:55.316Z,469.00
2023-05-04T01:09:55.362Z,468.00
2023-05-04T01:10:55.419Z,464.00
2023-05-04T01:11:55.547Z,465.00
2023-05-04T01:12:55.635Z,462.00
2023-05-04T01:13:55.655Z,463.00
2023-05-04T01:14:55.727Z,464.00
2023-05-04T01:15:55.805Z,465.00
2023-05-04T01:16:55.981Z,467.00
2023-05-04T01:17:55.980Z,470.00
2023-05-04T01:18:56.027Z,469.00
2023-05-04T01:19:56.102Z,468.00
2023-05-04T01:20:56.173Z,469.00
2023-05-04T01:21:56.267Z,471.00
2023-05-04T01:22:56.329Z,471.00
2023-05-04T01:23:56.531Z,470.00
2023-05-04T01:24:56.486Z,469.00
2023-05-04T01:25:56.519Z,470.00
2023-05-04T01:26:56.649Z,471.00
2023-05-04T01:27:56.661Z,471.00
2023-05-04T01:28:56.780Z,469.00
2023-05-04T01:29:56.845Z,467.00
2023-05-04T01:30:56.968Z,466.00
2023-05-04T01:31:57.015Z,464.00
2023-05-04T01:32:57.075Z,462.00
2023-05-04T01:33:57.167Z,461.00
2023-05-04T01:34:57.239Z,463.00
2023-05-04T01:35:57.311Z,463.00
2023-05-04T01:36:57.400Z,464.00
2023-05-04T01:37:57.498Z,461.00
2023-05-04T01:38:57.561Z,462.00
2023-05-04T01:39:57.618Z,460.00
2023-05-04T01:40:57.717Z,461.00
2023-05-04T01:41:57.780Z,463.00
2023-05-04T01:42:57.864Z,465.00
2023-05-04T01:43:57.932Z,464.00
2023-05-04T01:44:58.012Z,463.00
2023-05-04T01:45:58.138Z,463.00
2023-05-04T01:46:58.186Z,460.00
2023-05-04T01:47:58.307Z,461.00
2023-05-04T01:48:58.338Z,462.00
2023-05-04T01:49:58.430Z,462.00
2023-05-04T01:50:58.489Z,463.00
2023-05-04T01:51:58.601Z,463.00
2023-05-04T01:52:58.706Z,462.00
2023-05-04T01:53:58.771Z,466.00
2023-05-04T01:54:58.833Z,467.00
2023-05-04T01:55:58.935Z,467.00
2023-05-04T01:56:59.035Z,465.00
2023-05-04T01:57:59.115Z,462.00
2023-05-04T01:58:59.195Z,462.00
2023-05-04T01:59:59.274Z,462.00
2023-05-04T02:00:59.376Z,466.00
2023-05-04T02:01:59.488Z,468.00
2023-05-04T02:02:59.603Z,467.00
2023-05-04T02:03:59.856Z,468.00
2023-05-04T02:04:59.704Z,469.00
2023-05-04T02:05:59.787Z,471.00
2023-05-04T02:06:59.899Z,469.00
2023-05-04T02:07:59.960Z,468.00
2023-05-04T02:09:00.134Z,466.00
2023-05-04T02:10:00.164Z,467.00
2023-05-04T02:11:00.236Z,469.00
2023-05-04T02:12:00.311Z,470.00
2023-05-04T02:13:00.442Z,473.00
2023-05-04T02:14:00.497Z,474.00
2023-05-04T02:15:00.596Z,474.00
2023-05-04T02:16:00.717Z,473.00
2023-05-04T02:17:00.766Z,472.00
2023-05-04T02:18:00.889Z,473.00
2023-05-04T02:19:00.953Z,473.00
2023-05-04T02:20:01.042Z,475.00
2023-05-04T02:21:01.157Z,474.00
2023-05-04T02:22:01.235Z,475.00
2023-05-04T02:23:01.300Z,473.00
2023-05-04T02:24:01.435Z,475.00
2023-05-04T02:25:01.485Z,473.00
2023-05-04T02:26:01.619Z,474.00
2023-05-04T02:27:01.712Z,477.00
2023-05-04T02:28:01.792Z,476.00
2023-05-04T02:29:01.887Z,477.00
2023-05-04T02:30:01.997Z,478.00
2023-05-04T02:31:02.084Z,481.00
2023-05-04T02:32:02.296Z,479.00
2023-05-04T02:33:02.388Z,479.00
2023-05-04T02:34:02.376Z,478.00
2023-05-04T02:35:02.487Z,478.00
2023-05-04T02:36:02.564Z,478.00
2023-05-04T02:37:03.061Z,477.00
2023-05-04T02:38:02.758Z,476.00
2023-05-04T02:39:02.840Z,478.00
2023-05-04T02:40:03.112Z,478.00
2023-05-04T02:41:03.028Z,479.00
2023-05-04T02:42:03.134Z,475.00
2023-05-04T02:43:03.274Z,475.00
2023-05-04T02:44:03.322Z,476.00
2023-05-04T02:45:03.457Z,473.00
2023-05-04T02:46:03.615Z,474.00
2023-05-04T02:47:03.648Z,477.00
2023-05-04T02:48:03.805Z,480.00
2023-05-04T02:49:03.834Z,482.00
2023-05-04T02:50:04.170Z,483.00
2023-05-04T02:51:04.056Z,484.00
2023-05-04T02:52:04.142Z,488.00
2023-05-04T02:53:04.260Z,487.00
2023-05-04T02:54:04.325Z,488.00
2023-05-04T02:55:04.437Z,487.00
2023-05-04T02:56:04.539Z,487.00
2023-05-04T02:57:04.651Z,486.00
2023-05-04T02:58:04.741Z,485.00
2023-05-04T02:59:04.901Z,482.00
2023-05-04T03:00:05.263Z,483.00
2023-05-04T03:01:05.068Z,483.00
2023-05-04T03:02:05.148Z,486.00
2023-05-04T03:03:05.286Z,489.00
2023-05-04T03:04:05.384Z,489.00
2023-05-04T03:05:05.419Z,491.00
2023-05-04T03:06:05.528Z,490.00
2023-05-04T03:07:05.654Z,491.00
2023-05-04T03:08:05.746Z,491.00
2023-05-04T03:09:05.866Z,491.00
2023-05-04T03:10:06.067Z,491.00
2023-05-04T03:11:06.069Z,491.00
2023-05-04T03:12:06.164Z,492.00
2023-05-04T03:13:06.351Z,492.00
2023-05-04T03:14:06.460Z,492.00
2023-05-04T03:15:06.482Z,491.00
2023-05-04T03:16:06.612Z,493.00
2023-05-04T03:17:06.740Z,494.00
2023-05-04T03:18:06.866Z,495.00
2023-05-04T03:19:06.904Z,491.00
2023-05-04T03:20:07.225Z,491.00
2023-05-04T03:21:07.115Z,490.00
2023-05-04T03:22:07.216Z,490.00
2023-05-04T03:23:07.326Z,490.00
2023-05-04T03:24:07.460Z,491.00
2023-05-04T03:25:07.550Z,489.00
2023-05-04T03:26:07.642Z,490.00
2023-05-04T03:27:07.773Z,490.00
2023-05-04T03:28:07.876Z,489.00
2023-05-04T03:29:08.002Z,490.00
2023-05-04T03:30:08.112Z,489.00
2023-05-04T03:31:08.202Z,491.00
2023-05-04T03:32:08.364Z,488.00
2023-05-04T03:33:08.434Z,488.00
2023-05-04T03:34:08.569Z,486.00
2023-05-04T03:35:08.671Z,487.00
2023-05-04T03:36:08.790Z,485.00
2023-05-04T03:37:08.916Z,486.00
2023-05-04T03:38:09.007Z,485.00
2023-05-04T03:39:09.144Z,486.00
2023-05-04T03:40:09.255Z,484.00
2023-05-04T03:41:09.338Z,486.00
2023-05-04T03:42:09.494Z,487.00
2023-05-04T03:43:10.507Z,489.00
2023-05-04T03:44:09.708Z,489.00
2023-05-04T03:45:09.799Z,489.00
2023-05-04T03:46:09.989Z,490.00
2023-05-04T03:47:10.057Z,490.00
2023-05-04T03:48:10.177Z,487.00
2023-05-04T03:49:10.264Z,489.00
2023-05-04T03:50:10.383Z,486.00
2023-05-04T03:51:10.486Z,485.00
2023-05-04T03:52:10.633Z,485.00
2023-05-04T03:53:10.702Z,482.00
2023-05-04T03:54:10.821Z,483.00
2023-05-04T03:55:10.941Z,482.00
2023-05-04T03:56:11.070Z,482.00
2023-05-04T03:57:11.227Z,483.00
2023-05-04T03:58:11.293Z,485.00
2023-05-04T03:59:11.420Z,485.00
2023-05-04T04:00:11.534Z,487.00
2023-05-04T04:01:11.638Z,488.00
2023-05-04T04:02:11.742Z,490.00
2023-05-04T04:03:12.103Z,488.00
2023-05-04T04:04:12.031Z,490.00
2023-05-04T04:05:12.108Z,488.00
2023-05-04T04:06:12.219Z,491.00
2023-05-04T04:07:12.336Z,493.00
2023-05-04T04:08:12.426Z,496.00
2023-05-04T04:09:12.530Z,499.00
2023-05-04T04:10:12.669Z,498.00
2023-05-04T04:11:12.776Z,501.00
2023-05-04T04:12:12.911Z,497.00
2023-05-04T04:13:13.142Z,498.00
2023-05-04T04:14:13.157Z,497.00
2023-05-04T04:15:13.225Z,500.00
2023-05-04T04:16:13.431Z,498.00
2023-05-04T04:17:13.472Z,496.00
2023-05-04T04:18:13.630Z,493.00
2023-05-04T04:19:13.724Z,494.00
2023-05-04T04:20:13.852Z,497.00
2023-05-04T04:21:13.975Z,499.00
2023-05-04T04:22:14.072Z,499.00
2023-05-04T04:23:14.174Z,500.00
2023-05-04T04:24:14.298Z,502.00
2023-05-04T04:25:14.390Z,501.00
2023-05-04T04:26:14.495Z,501.00
2023-05-04T04:27:14.596Z,500.00
2023-05-04T04:28:14.667Z,498.00
2023-05-04T04:29:14.774Z,499.00
2023-05-04T04:30:14.867Z,497.00
2023-05-04T04:31:14.958Z,496.00
2023-05-04T04:32:15.036Z,495.00
2023-05-04T04:33:15.259Z,496.00
2023-05-04T04:34:15.189Z,499.00
2023-05-04T04:35:15.291Z,501.00
2023-05-04T04:36:15.359Z,501.00
2023-05-04T04:37:15.457Z,502.00
2023-05-04T04:38:15.561Z,501.00
2023-05-04T04:39:15.701Z,503.00
2023-05-04T04:40:15.753Z,502.00
2023-05-04T04:41:15.865Z,505.00
2023-05-04T04:42:15.958Z,507.00
2023-05-04T04:43:16.024Z,504.00
2023-05-04T04:44:16.123Z,503.00
2023-05-04T04:45:16.238Z,503.00
2023-05-04T04:46:16.462Z,501.00
2023-05-04T04:47:16.517Z,501.00
2023-05-04T04:48:16.585Z,502.00
2023-05-04T04:49:16.649Z,501.00
2023-05-04T04:50:16.764Z,501.00
2023-05-04T04:51:16.849Z,500.00
2023-05-04T04:52:16.974Z,496.00
2023-05-04T04:53:18.032Z,496.00
2023-05-04T04:54:17.136Z,497.00
2023-05-04T04:55:17.207Z,492.00
2023-05-04T04:56:17.343Z,495.00
2023-05-04T04:57:17.445Z,495.00
2023-05-04T04:58:17.526Z,497.00
2023-05-04T04:59:17.670Z,498.00
2023-05-04T05:00:17.718Z,503.00
2023-05-04T05:01:18.063Z,503.00
2023-05-04T05:02:17.943Z,504.00
2023-05-04T05:03:18.108Z,506.00
2023-05-04T05:04:18.143Z,510.00
2023-05-04T05:05:18.232Z,507.00
2023-05-04T05:06:18.344Z,509.00
2023-05-04T05:07:18.418Z,510.00
2023-05-04T05:08:18.501Z,504.00
2023-05-04T05:09:18.611Z,505.00
2023-05-04T05:10:18.705Z,503.00
2023-05-04T05:11:18.784Z,504.00
2023-05-04T05:12:18.896Z,503.00
2023-05-04T05:13:18.985Z,501.00
2023-05-04T05:14:19.096Z,500.00
2023-05-04T05:15:19.181Z,497.00
2023-05-04T05:16:19.295Z,500.00
2023-05-04T05:17:19.340Z,500.00
2023-05-04T05:18:19.456Z,500.00
2023-05-04T05:19:19.526Z,498.00
2023-05-04T05:20:19.587Z,500.00
2023-05-04T05:21:19.660Z,503.00
2023-05-04T05:22:19.735Z,503.00
2023-05-04T05:23:19.749Z,503.00
2023-05-04T05:24:19.846Z,503.00
2023-05-04T05:25:19.926Z,502.00
2023-05-04T05:26:20.034Z,498.00
2023-05-04T05:27:20.102Z,497.00
2023-05-04T05:28:20.215Z,500.00
2023-05-04T05:29:20.320Z,499.00
2023-05-04T05:30:20.425Z,500.00
2023-05-04T05:31:20.601Z,498.00
2023-05-04T05:32:20.655Z,496.00
2023-05-04T05:33:20.753Z,492.00
2023-05-04T05:34:20.824Z,490.00
2023-05-04T05:35:20.953Z,493.00
2023-05-04T05:36:21.018Z,503.00
2023-05-04T05:37:21.064Z,539.00
2023-05-04T05:38:21.162Z,573.00
2023-05-04T05:39:21.230Z,602.00
2023-05-04T05:40:21.333Z,640.00
2023-05-04T05:41:21.488Z,626.00
2023-05-04T05:42:22.059Z,621.00
2023-05-04T05:43:21.690Z,628.00
2023-05-04T05:44:21.788Z,646.00
2023-05-04T05:45:21.933Z,684.00
2023-05-04T05:46:22.109Z,668.00
2023-05-04T05:47:22.229Z,649.00
2023-05-04T05:48:22.308Z,664.00
2023-05-04T05:49:22.422Z,712.00
2023-05-04T05:50:22.520Z,711.00
2023-05-04T05:51:22.645Z,716.00
2023-05-04T05:52:22.772Z,725.00
2023-05-04T05:53:22.871Z,746.00
2023-05-04T05:54:22.958Z,760.00
2023-05-04T05:55:23.091Z,765.00
2023-05-04T05:56:23.178Z,765.00
2023-05-04T05:57:23.551Z,851.00
2023-05-04T05:58:23.337Z,926.00
2023-05-04T05:59:23.466Z,924.00
2023-05-04T06:00:23.563Z,919.00
2023-05-04T06:01:24.214Z,923.00
2023-05-04T06:02:23.812Z,966.00
2023-05-04T06:03:23.988Z,965.00
2023-05-04T06:04:23.935Z,972.00
2023-05-04T06:05:23.948Z,963.00
2023-05-04T06:06:24.041Z,971.00
2023-05-04T06:07:24.115Z,979.00
2023-05-04T06:08:24.191Z,980.00
2023-05-04T06:09:24.269Z,988.00
2023-05-04T06:10:24.297Z,1016.00
2023-05-04T06:11:24.389Z,1017.00
2023-05-04T06:12:24.457Z,1027.00
2023-05-04T06:13:24.473Z,1036.00
2023-05-04T06:14:24.547Z,1034.00
2023-05-04T06:15:24.620Z,1041.00
2023-05-04T06:16:24.747Z,1046.00
2023-05-04T06:17:24.750Z,1060.00
2023-05-04T06:18:24.777Z,1099.00
2023-05-04T06:19:24.828Z,1106.00
2023-05-04T06:20:24.870Z,1096.00
2023-05-04T06:21:25.017Z,1099.00
2023-05-04T06:22:25.014Z,1116.00
2023-05-04T06:23:25.076Z,1129.00
2023-05-04T06:24:25.094Z,1174.00
2023-05-04T06:25:25.155Z,1181.00
2023-05-04T06:26:25.173Z,1190.00
2023-05-04T06:27:25.275Z,1203.00
2023-05-04T06:28:25.293Z,1206.00
2023-05-04T06:29:25.351Z,1221.00
2023-05-04T06:30:25.376Z,1246.00
2023-05-04T06:31:25.530Z,1247.00
2023-05-04T06:32:25.540Z,1239.00
2023-05-04T06:33:25.581Z,1240.00
2023-05-04T06:34:25.643Z,1243.00
2023-05-04T06:35:25.771Z,1248.00
2023-05-04T06:36:25.832Z,1273.00
2023-05-04T06:37:25.915Z,1286.00
2023-05-04T06:38:25.997Z,1336.00
2023-05-04T06:39:26.065Z,1339.00
2023-05-04T06:40:26.159Z,1337.00
2023-05-04T06:41:26.196Z,1338.00
2023-05-04T06:42:26.292Z,1337.00
2023-05-04T06:43:26.356Z,1354.00
2023-05-04T06:44:26.409Z,1356.00
2023-05-04T06:45:26.532Z,1358.00
2023-05-04T06:46:26.642Z,1155.00
2023-05-04T06:47:26.721Z,1269.00
2023-05-04T06:48:26.757Z,1255.00
2023-05-04T06:49:26.826Z,1260.00
2023-05-04T06:50:26.957Z,1280.00
2023-05-04T06:51:27.023Z,1363.00
2023-05-04T06:52:27.124Z,1365.00
2023-05-04T06:53:27.204Z,1358.00
2023-05-04T06:54:27.268Z,1403.00
2023-05-04T06:55:27.356Z,1474.00
2023-05-04T06:56:27.429Z,1462.00
2023-05-04T06:57:27.510Z,1460.00
2023-05-04T06:58:27.580Z,1463.00
2023-05-04T06:59:27.667Z,1458.00
2023-05-04T07:00:27.801Z,1457.00
2023-05-04T07:01:27.896Z,1456.00
2023-05-04T07:02:28.018Z,1463.00
2023-05-04T07:03:28.097Z,1470.00
2023-05-04T07:04:28.201Z,1476.00
2023-05-04T07:05:28.266Z,1478.00
2023-05-04T07:06:28.380Z,1478.00
2023-05-04T07:07:28.525Z,1479.00
2023-05-04T07:08:28.622Z,1483.00
2023-05-04T07:09:28.721Z,1484.00
2023-05-04T07:10:28.815Z,1485.00
2023-05-04T07:11:28.948Z,1485.00
2023-05-04T07:12:29.103Z,1482.00
2023-05-04T07:13:29.149Z,1487.00
2023-05-04T07:14:29.243Z,1490.00
2023-05-04T07:15:29.315Z,1495.00
2023-05-04T07:16:29.471Z,1495.00
2023-05-04T07:17:29.524Z,1494.00
2023-05-04T07:18:29.608Z,1429.00
2023-05-04T07:19:29.710Z,1453.00
2023-05-04T07:20:29.845Z,1458.00
2023-05-04T07:21:29.967Z,1473.00
2023-05-04T07:22:30.056Z,1479.00
2023-05-04T07:23:30.149Z,1480.00
2023-05-04T07:24:30.260Z,1478.00
2023-05-04T07:25:30.370Z,1476.00
2023-05-04T07:26:30.440Z,1475.00
2023-05-04T07:27:30.584Z,1469.00
2023-05-04T07:28:30.691Z,1455.00
2023-05-04T07:29:30.757Z,1451.00
2023-05-04T07:30:30.839Z,1452.00
2023-05-04T07:31:31.045Z,1445.00
2023-05-04T07:32:31.038Z,1434.00
2023-05-04T07:33:31.146Z,1436.00
2023-05-04T07:34:44.616Z,1441.00
2023-05-04T07:35:32.287Z,1437.00
2023-05-04T07:36:31.302Z,1426.00
2023-05-04T07:37:31.589Z,1418.00
2023-05-04T07:38:31.378Z,1304.00
2023-05-04T07:39:31.425Z,1326.00
2023-05-04T07:40:31.463Z,1354.00
2023-05-04T07:41:31.477Z,1283.00
2023-05-04T07:42:31.590Z,1194.00
2023-05-04T07:43:31.555Z,1164.00
2023-05-04T07:44:31.671Z,1161.00
2023-05-04T07:45:31.705Z,1022.00
2023-05-04T07:46:31.835Z,1027.00
2023-05-04T07:47:32.183Z,1099.00
2023-05-04T07:48:31.919Z,1095.00
2023-05-04T07:49:32.027Z,1089.00
2023-05-04T07:50:32.059Z,929.00
2023-05-04T07:51:32.154Z,1020.00
2023-05-04T07:52:32.275Z,1039.00
2023-05-04T07:53:32.352Z,1046.00
2023-05-04T07:54:32.432Z,1042.00
2023-05-04T07:55:32.527Z,1029.00
2023-05-04T07:56:32.628Z,983.00
2023-05-04T07:57:32.683Z,984.00
2023-05-04T07:58:32.714Z,980.00
2023-05-04T07:59:32.823Z,976.00
2023-05-04T08:00:32.886Z,968.00
2023-05-04T08:01:33.026Z,957.00
2023-05-04T08:02:33.146Z,888.00
2023-05-04T08:03:33.127Z,861.00
2023-05-04T08:04:33.225Z,861.00
2023-05-04T08:05:33.310Z,849.00
2023-05-04T08:06:33.391Z,766.00
2023-05-04T08:07:33.457Z,791.00
2023-05-04T08:08:33.552Z,805.00
2023-05-04T08:09:33.587Z,810.00
2023-05-04T08:10:33.693Z,802.00
2023-05-04T08:11:33.735Z,800.00
2023-05-04T08:12:33.857Z,785.00
2023-05-04T08:13:33.894Z,756.00
2023-05-04T08:14:34.137Z,742.00
2023-05-04T08:15:34.010Z,731.00
2023-05-04T08:16:34.127Z,724.00
2023-05-04T08:17:34.216Z,716.00
2023-05-04T08:18:34.236Z,716.00
2023-05-04T08:19:34.295Z,711.00
2023-05-04T08:20:34.428Z,708.00
2023-05-04T08:21:34.454Z,701.00
2023-05-04T08:22:34.546Z,698.00
2023-05-04T08:23:34.599Z,695.00
2023-05-04T08:24:34.680Z,693.00
2023-05-04T08:25:34.770Z,692.00
2023-05-04T08:26:34.856Z,687.00
2023-05-04T08:27:34.936Z,683.00
2023-05-04T08:28:35.011Z,677.00
2023-05-04T08:29:35.097Z,670.00
2023-05-04T08:30:35.151Z,660.00
2023-05-04T08:31:35.316Z,654.00
2023-05-04T08:32:35.385Z,647.00
2023-05-04T08:33:35.401Z,638.00
2023-05-04T08:34:35.445Z,627.00
2023-05-04T08:35:35.563Z,623.00
2023-05-04T08:36:35.678Z,656.00
2023-05-04T08:37:35.723Z,696.00
2023-05-04T08:38:35.787Z,724.00
2023-05-04T08:39:35.905Z,758.00
2023-05-04T08:40:35.953Z,774.00
2023-05-04T08:41:36.041Z,786.00
2023-05-04T08:42:36.139Z,923.00
2023-05-04T08:43:36.239Z,950.00
2023-05-04T08:44:36.227Z,952.00
2023-05-04T08:45:36.333Z,845.00
2023-05-04T08:46:36.370Z,899.00
2023-05-04T08:47:36.675Z,1035.00
2023-05-04T08:48:36.496Z,1046.00
2023-05-04T08:49:36.604Z,1042.00
2023-05-04T08:50:36.654Z,1025.00
2023-05-04T08:51:36.777Z,1031.00
2023-05-04T08:52:36.832Z,918.00
2023-05-04T08:53:36.851Z,981.00
2023-05-04T08:54:36.934Z,966.00
2023-05-04T08:55:37.026Z,962.00
2023-05-04T08:56:37.049Z,956.00
2023-05-04T08:57:37.171Z,994.00
2023-05-04T08:58:37.238Z,1015.00
2023-05-04T08:59:37.309Z,1028.00
2023-05-04T09:00:37.415Z,1033.00
2023-05-04T09:01:37.440Z,1048.00
2023-05-04T09:02:37.693Z,1064.00
2023-05-04T09:03:37.753Z,1081.00
2023-05-04T09:04:37.756Z,1093.00
2023-05-04T09:05:37.739Z,1101.00
2023-05-04T09:06:37.838Z,1110.00
2023-05-04T09:07:37.958Z,1117.00
2023-05-04T09:08:38.007Z,1124.00
2023-05-04T09:09:38.121Z,1116.00
2023-05-04T09:10:38.264Z,1127.00
2023-05-04T09:11:38.302Z,1143.00
2023-05-04T09:12:38.441Z,1144.00
2023-05-04T09:13:38.441Z,1143.00
2023-05-04T09:14:38.535Z,1143.00
2023-05-04T09:15:38.651Z,1145.00
2023-05-04T09:16:38.756Z,1152.00
2023-05-04T09:17:50.946Z,1162.00
2023-05-04T09:18:39.801Z,1169.00
2023-05-04T09:19:38.807Z,1180.00
2023-05-04T09:20:38.834Z,1189.00
2023-05-04T09:21:38.881Z,1200.00
2023-05-04T09:22:38.928Z,1206.00
2023-05-04T09:23:38.980Z,1207.00
2023-05-04T09:24:38.931Z,1208.00
2023-05-04T09:25:38.944Z,1210.00
2023-05-04T09:26:38.984Z,1217.00
2023-05-04T09:27:39.012Z,1224.00
2023-05-04T09:28:39.048Z,1241.00
2023-05-04T09:29:39.051Z,1278.00
2023-05-04T09:30:39.097Z,1291.00
2023-05-04T09:31:39.243Z,1310.00
2023-05-04T09:32:39.149Z,1320.00
2023-05-04T09:33:39.152Z,1324.00
2023-05-04T09:34:39.168Z,1341.00
2023-05-04T09:35:39.248Z,1361.00
2023-05-04T09:36:39.292Z,1426.00
2023-05-04T09:37:39.674Z,1431.00
2023-05-04T09:38:39.309Z,1436.00
2023-05-04T09:39:39.362Z,1440.00
2023-05-04T09:40:39.483Z,1455.00
2023-05-04T09:41:39.453Z,1476.00
2023-05-04T09:42:39.493Z,1476.00
2023-05-04T09:43:39.649Z,1337.00
2023-05-04T09:44:39.570Z,1338.00
2023-05-04T09:45:39.610Z,1316.00
2023-05-04T09:46:39.695Z,1266.00
2023-05-04T09:47:39.769Z,1279.00
2023-05-04T09:48:40.160Z,1294.00
2023-05-04T09:49:39.840Z,1321.00
2023-05-04T09:50:39.895Z,1327.00
2023-05-04T09:51:39.957Z,1316.00
2023-05-04T09:52:40.061Z,1310.00
2023-05-04T09:53:40.116Z,1293.00
2023-05-04T09:54:40.187Z,1273.00
2023-05-04T09:55:40.268Z,1210.00
2023-05-04T09:56:40.340Z,1205.00
2023-05-04T09:57:40.423Z,1087.00
2023-05-04T09:58:40.490Z,1096.00
2023-05-04T09:59:40.582Z,1094.00
2023-05-04T10:00:40.672Z,1084.00
2023-05-04T10:01:42.249Z,1074.00
2023-05-04T10:02:40.871Z,1064.00
2023-05-04T10:03:40.813Z,1056.00
2023-05-04T10:04:40.788Z,1040.00
2023-05-04T10:05:40.880Z,1000.00
2023-05-04T10:06:40.840Z,988.00
2023-05-04T10:07:41.638Z,985.00
2023-05-04T10:08:40.895Z,983.00
2023-05-04T10:09:40.936Z,982.00
2023-05-04T10:10:40.939Z,982.00
2023-05-04T10:11:40.991Z,993.00
2023-05-04T10:12:41.042Z,1041.00
2023-05-04T10:13:41.042Z,1023.00
2023-05-04T10:14:41.098Z,1007.00
2023-05-04T10:15:41.128Z,1000.00
2023-05-04T10:16:41.107Z,994.00
2023-05-04T10:17:41.224Z,982.00
2023-05-04T10:18:41.170Z,971.00
2023-05-04T10:19:41.171Z,966.00
2023-05-04T10:20:41.224Z,964.00
2023-05-04T10:21:41.284Z,962.00
2023-05-04T10:22:41.286Z,971.00
2023-05-04T10:23:41.324Z,973.00
2023-05-04T10:24:41.325Z,973.00
2023-05-04T10:25:41.367Z,976.00
2023-05-04T10:26:41.409Z,984.00
2023-05-04T10:27:41.456Z,991.00
2023-05-04T10:28:41.466Z,1013.00
2023-05-04T10:29:41.476Z,1018.00
2023-05-04T10:30:41.484Z,1015.00
2023-05-04T10:31:41.604Z,1011.00
2023-05-04T10:32:41.598Z,1009.00
2023-05-04T10:33:41.613Z,1002.00
2023-05-04T10:34:41.588Z,995.00
2023-05-04T10:35:41.643Z,994.00
2023-05-04T10:36:41.680Z,997.00
2023-05-04T10:37:41.701Z,991.00
2023-05-04T10:38:41.728Z,986.00
2023-05-04T10:39:41.742Z,988.00
2023-05-04T10:40:41.938Z,993.00
2023-05-04T10:41:41.848Z,1002.00
2023-05-04T10:42:41.844Z,1007.00
2023-05-04T10:43:41.862Z,1011.00
2023-05-04T10:44:41.955Z,1008.00
2023-05-04T10:45:42.091Z,995.00
2023-05-04T10:46:42.066Z,975.00
2023-05-04T10:47:42.136Z,969.00
2023-05-04T10:48:42.181Z,971.00
2023-05-04T10:49:42.272Z,972.00
2023-05-04T10:50:42.352Z,970.00
2023-05-04T10:51:48.951Z,972.00
2023-05-04T10:52:43.444Z,975.00
2023-05-04T10:53:42.449Z,982.00
2023-05-04T10:54:42.511Z,996.00
2023-05-04T10:55:42.486Z,1000.00
2023-05-04T10:56:42.609Z,1002.00
2023-05-04T10:57:42.544Z,997.00
2023-05-04T10:58:42.613Z,995.00
2023-05-04T10:59:42.637Z,993.00
2023-05-04T11:00:42.683Z,984.00
2023-05-04T11:01:42.732Z,980.00
2023-05-04T11:02:42.826Z,980.00
2023-05-04T11:03:42.818Z,980.00
2023-05-04T11:04:42.749Z,981.00
2023-05-04T11:05:42.754Z,974.00
2023-05-04T11:06:42.823Z,974.00
2023-05-04T11:07:42.845Z,975.00
2023-05-04T11:08:43.196Z,973.00
2023-05-04T11:09:42.868Z,975.00
2023-05-04T11:10:42.871Z,974.00
2023-05-04T11:11:42.913Z,974.00
2023-05-04T11:12:43.088Z,976.00
2023-05-04T11:13:43.032Z,980.00
2023-05-04T11:14:43.488Z,983.00
2023-05-04T11:15:43.142Z,981.00
2023-05-04T11:16:43.244Z,978.00
2023-05-04T11:17:43.313Z,976.00
2023-05-04T11:18:43.301Z,971.00
2023-05-04T11:19:43.407Z,968.00
2023-05-04T11:20:43.425Z,963.00
2023-05-04T11:21:43.516Z,964.00
2023-05-04T11:22:43.548Z,967.00
2023-05-04T11:23:43.600Z,969.00
2023-05-04T11:24:44.199Z,968.00
2023-05-04T11:25:43.698Z,968.00
2023-05-04T11:26:43.776Z,967.00
2023-05-04T11:27:43.812Z,972.00
2023-05-04T11:28:44.213Z,975.00
2023-05-04T11:29:43.947Z,976.00
2023-05-04T11:30:43.964Z,977.00
2023-05-04T11:31:44.084Z,977.00
2023-05-04T11:32:44.171Z,981.00
2023-05-04T11:33:44.176Z,981.00
2023-05-04T11:34:44.177Z,981.00
2023-05-04T11:35:44.205Z,984.00
2023-05-04T11:36:44.294Z,983.00
2023-05-04T11:37:44.324Z,981.00
2023-05-04T11:38:44.387Z,983.00
2023-05-04T11:39:44.406Z,984.00
2023-05-04T11:40:44.465Z,985.00
2023-05-04T11:41:44.494Z,982.00
2023-05-04T11:42:44.549Z,981.00
2023-05-04T11:43:44.613Z,977.00
2023-05-04T11:44:44.677Z,972.00
2023-05-04T11:45:44.686Z,966.00
2023-05-04T11:46:45.742Z,965.00
2023-05-04T11:47:44.827Z,968.00
2023-05-04T11:48:44.807Z,967.00
2023-05-04T11:49:44.836Z,969.00
2023-05-04T11:50:44.891Z,969.00
2023-05-04T11:51:44.927Z,972.00
2023-05-04T11:52:44.997Z,976.00
2023-05-04T11:53:45.022Z,980.00
2023-05-04T11:54:45.067Z,982.00
2023-05-04T11:55:45.095Z,987.00
2023-05-04T11:56:45.114Z,987.00
2023-05-04T11:57:45.201Z,987.00
2023-05-04T11:58:45.225Z,1003.00
2023-05-04T11:59:45.248Z,996.00
2023-05-04T12:00:45.407Z,996.00
2023-05-04T12:01:45.363Z,995.00
2023-05-04T12:02:45.408Z,991.00
2023-05-04T12:03:53.891Z,991.00
2023-05-04T12:04:46.425Z,987.00
2023-05-04T12:05:46.261Z,985.00
2023-05-04T12:06:45.475Z,986.00
2023-05-04T12:07:45.489Z,984.00
2023-05-04T12:08:45.551Z,980.00
2023-05-04T12:09:45.495Z,976.00
2023-05-04T12:10:45.527Z,973.00
2023-05-04T12:11:45.569Z,972.00
2023-05-04T12:12:45.615Z,974.00
2023-05-04T12:13:45.735Z,978.00
2023-05-04T12:14:45.647Z,980.00
2023-05-04T12:15:45.621Z,981.00
2023-05-04T12:16:45.726Z,986.00
2023-05-04T12:17:45.681Z,995.00
2023-05-04T12:18:45.697Z,1004.00
2023-05-04T12:19:45.710Z,1005.00
2023-05-04T12:20:45.704Z,1010.00
2023-05-04T12:21:45.741Z,1009.00
2023-05-04T12:22:45.755Z,1015.00
2023-05-04T12:23:46.232Z,1020.00